createdAt,value
2018-12-23T00:00:37.366Z,89.90
2018-12-23T00:03:03.845Z,89.90
2018-12-23T00:05:29.992Z,90.00
2018-12-23T00:07:56.227Z,90.20
2018-12-23T00:10:22.817Z,90.20
2018-12-23T00:12:49.056Z,90.10
2018-12-23T00:15:15.291Z,90.10
2018-12-23T00:17:47.713Z,90.10
2018-12-23T00:20:13.856Z,90.10
2018-12-23T00:22:41.094Z,90.10
2018-12-23T00:25:07.383Z,90.20
2018-12-23T00:27:33.648Z,90.10
2018-12-23T00:29:59.822Z,90.10
2018-12-23T00:32:26.069Z,90.20
2018-12-23T00:34:53.116Z,90.10
2018-12-23T00:37:19.352Z,90.20
2018-12-23T00:39:45.499Z,90.10
2018-12-23T00:42:17.872Z,90.10
2018-12-23T00:44:44.987Z,90.10
2018-12-23T00:47:11.440Z,90.10
2018-12-23T00:49:37.659Z,90.20
2018-12-23T00:52:03.945Z,90.10
2018-12-23T00:54:34.247Z,90.10
2018-12-23T00:57:00.492Z,90.10
2018-12-23T00:59:27.891Z,90.10
2018-12-23T01:02:00.436Z,90.10
2018-12-23T01:04:33.648Z,90.10
2018-12-23T01:06:59.947Z,90.10
2018-12-23T01:09:26.424Z,90.10
2018-12-23T01:11:52.676Z,90.20
2018-12-23T01:14:18.927Z,90.20
2018-12-23T01:16:45.192Z,90.20
2018-12-23T01:19:11.541Z,90.20
2018-12-23T01:21:37.678Z,90.10
2018-12-23T01:24:10.001Z,90.20
2018-12-23T01:26:36.240Z,90.10
2018-12-23T01:29:02.607Z,90.20
2018-12-23T01:31:28.960Z,90.20
2018-12-23T01:33:55.213Z,90.10
2018-12-23T01:36:21.464Z,90.10
2018-12-23T01:38:54.213Z,90.10
2018-12-23T01:41:20.469Z,90.20
2018-12-23T01:43:47.684Z,90.10
2018-12-23T01:46:20.244Z,90.50
2018-12-23T01:48:46.666Z,90.20
2018-12-23T01:54:52.401Z,90.10
2018-12-23T01:57:31.959Z,90.10
2018-12-23T02:00:11.523Z,90.20
2018-12-23T02:02:48.925Z,90.10
2018-12-23T02:05:35.197Z,90.20
2018-12-23T02:08:15.476Z,90.10
2018-12-23T02:10:55.404Z,90.20
2018-12-23T02:13:55.056Z,90.10
2018-12-23T02:16:54.658Z,90.10
2018-12-23T02:19:34.050Z,90.10
2018-12-23T02:22:14.343Z,90.10
2018-12-23T02:24:53.708Z,90.10
2018-12-23T02:27:33.033Z,90.10
2018-12-23T02:30:13.278Z,90.10
2018-12-23T02:32:52.823Z,90.10
2018-12-23T02:35:32.962Z,90.10
2018-12-23T02:38:13.034Z,90.10
2018-12-23T02:40:52.581Z,90.00
2018-12-23T02:43:32.922Z,90.00
2018-12-23T02:46:13.198Z,90.00
2018-12-23T02:48:52.599Z,90.10
2018-12-23T02:51:31.997Z,90.00
2018-12-23T02:54:11.673Z,90.00
2018-12-23T02:57:11.117Z,90.00
2018-12-23T02:59:50.477Z,90.00
2018-12-23T03:02:36.649Z,90.00
2018-12-23T03:05:16.136Z,89.90
2018-12-23T03:08:15.587Z,89.90
2018-12-23T03:10:55.725Z,89.80
2018-12-23T03:13:38.124Z,89.50
2018-12-23T03:16:23.408Z,89.70
2018-12-23T03:19:02.721Z,89.60
2018-12-23T03:21:45.819Z,89.70
2018-12-23T03:24:26.101Z,89.70
2018-12-23T03:27:05.549Z,89.50
2018-12-23T03:29:44.945Z,89.50
2018-12-23T03:32:24.502Z,89.40
2018-12-23T03:35:24.513Z,89.40
2018-12-23T03:38:04.225Z,89.50
2018-12-23T03:40:44.379Z,89.50
2018-12-23T03:43:23.864Z,89.50
2018-12-23T03:46:06.029Z,89.40
2018-12-23T03:48:45.415Z,89.30
2018-12-23T03:51:24.754Z,89.50
2018-12-23T03:54:04.105Z,89.50
2018-12-23T03:56:41.616Z,89.80
2018-12-23T03:59:27.946Z,89.60
2018-12-23T04:02:07.916Z,89.70
2018-12-23T04:04:47.178Z,89.30
2018-12-23T04:07:27.153Z,89.60
2018-12-23T04:10:09.538Z,89.40
2018-12-23T04:12:52.683Z,89.30
2018-12-23T04:15:32.699Z,89.30
2018-12-23T04:18:12.413Z,89.30
2018-12-23T04:20:52.504Z,89.30
2018-12-23T04:23:35.787Z,89.20
2018-12-23T04:26:15.322Z,89.30
2018-12-23T04:29:14.811Z,89.20
2018-12-23T04:31:54.221Z,89.20
2018-12-23T04:34:33.464Z,89.30
2018-12-23T04:37:12.982Z,89.00
2018-12-23T04:39:50.435Z,89.10
2018-12-23T04:42:36.700Z,89.10
2018-12-23T04:45:16.829Z,88.90
2018-12-23T04:47:56.652Z,89.00
2018-12-23T04:50:39.904Z,88.90
2018-12-23T04:53:19.492Z,88.70
2018-12-23T04:56:05.585Z,88.90
2018-12-23T04:58:45.812Z,88.80
2018-12-23T05:01:25.974Z,88.70
2018-12-23T05:04:25.389Z,89.60
2018-12-23T05:07:25.069Z,89.10
2018-12-23T05:10:05.386Z,88.90
2018-12-23T05:12:45.664Z,89.00
2018-12-23T05:15:25.070Z,89.10
2018-12-23T05:18:05.447Z,89.20
2018-12-23T05:20:45.121Z,89.00
2018-12-23T05:23:25.196Z,89.60
2018-12-23T05:26:04.691Z,88.70
2018-12-23T05:29:04.118Z,88.90
2018-12-23T05:31:43.486Z,88.90
2018-12-23T05:34:23.554Z,89.00
2018-12-23T05:37:05.817Z,89.20
2018-12-23T05:39:45.233Z,89.10
2018-12-23T05:42:27.553Z,88.90
2018-12-23T05:45:10.817Z,89.00
2018-12-23T05:47:50.317Z,89.00
2018-12-23T05:50:32.605Z,89.10
2018-12-23T05:53:12.880Z,89.10
2018-12-23T05:55:53.045Z,88.90
2018-12-23T05:58:33.206Z,89.10
2018-12-23T06:01:13.401Z,89.10
2018-12-23T06:03:53.646Z,89.20
2018-12-23T06:06:33.781Z,89.20
2018-12-23T06:09:13.221Z,89.00
2018-12-23T06:11:53.139Z,88.80
2018-12-23T06:14:33.249Z,88.90
2018-12-23T06:17:12.839Z,88.90
2018-12-23T06:19:52.265Z,88.90
2018-12-23T06:22:31.968Z,89.00
2018-12-23T06:25:14.186Z,89.10
2018-12-23T06:27:57.236Z,89.10
2018-12-23T06:30:36.869Z,89.00
2018-12-23T06:33:16.606Z,89.00
2018-12-23T06:35:55.961Z,88.90
2018-12-23T06:38:34.579Z,88.90
2018-12-23T06:41:14.421Z,89.10
2018-12-23T06:44:14.154Z,89.10
2018-12-23T06:46:54.328Z,89.10
2018-12-23T06:49:33.774Z,89.20
2018-12-23T06:52:14.069Z,89.10
2018-12-23T06:54:53.738Z,89.10
2018-12-23T06:57:53.900Z,89.20
2018-12-23T07:00:36.137Z,89.30
2018-12-23T07:03:15.696Z,89.40
2018-12-23T07:06:15.051Z,89.20
2018-12-23T07:08:54.664Z,89.20
2018-12-23T07:11:34.806Z,89.20
2018-12-23T07:14:34.999Z,89.20
2018-12-23T07:17:34.393Z,89.50
2018-12-23T07:20:33.938Z,89.50
2018-12-23T07:23:13.342Z,89.50
2018-12-23T07:25:52.692Z,89.50
2018-12-23T07:28:32.057Z,89.40
2018-12-23T07:31:11.537Z,89.40
2018-12-23T07:34:11.003Z,89.40
2018-12-23T07:37:10.336Z,89.50
2018-12-23T07:39:56.547Z,89.50
2018-12-23T07:42:56.789Z,89.50
2018-12-23T07:45:56.158Z,89.60
2018-12-23T07:48:55.522Z,89.50
2018-12-23T07:51:35.085Z,89.30
2018-12-23T07:54:14.793Z,89.30
2018-12-23T07:57:14.153Z,89.30
2018-12-23T07:59:54.476Z,89.50
2018-12-23T08:02:53.782Z,89.30
2018-12-23T08:05:53.207Z,89.40
2018-12-23T08:08:52.668Z,89.60
2018-12-23T08:11:32.932Z,89.40
2018-12-23T08:14:12.793Z,89.50
2018-12-23T08:16:55.325Z,89.50
2018-12-23T08:19:54.957Z,89.50
2018-12-23T08:22:40.541Z,89.30
2018-12-23T08:25:20.282Z,89.30
2018-12-23T08:28:20.411Z,89.20
2018-12-23T08:31:20.011Z,89.10
2018-12-23T08:33:59.650Z,89.30
2018-12-23T08:36:39.925Z,89.40
2018-12-23T08:39:20.162Z,89.30
2018-12-23T08:42:00.473Z,89.30
2018-12-23T08:45:00.191Z,89.50
2018-12-23T08:47:39.355Z,89.20
2018-12-23T08:50:18.998Z,89.30
2018-12-23T08:53:01.378Z,89.40
2018-12-23T08:56:00.760Z,89.50
2018-12-23T08:59:00.333Z,89.50
2018-12-23T09:01:39.805Z,89.50
2018-12-23T09:04:19.241Z,89.50
2018-12-23T09:07:18.614Z,89.50
2018-12-23T09:10:18.060Z,89.50
2018-12-23T09:13:00.546Z,89.50
2018-12-23T09:15:46.015Z,89.50
2018-12-23T09:18:25.371Z,89.40
2018-12-23T09:21:05.674Z,89.40
2018-12-23T09:23:45.534Z,89.40
2018-12-23T09:26:25.170Z,89.50
2018-12-23T09:29:04.473Z,89.60
2018-12-23T09:31:43.956Z,89.50
2018-12-23T09:34:23.704Z,89.50
2018-12-23T09:37:03.287Z,89.70
2018-12-23T09:39:43.660Z,89.60
2018-12-23T09:42:23.037Z,89.50
2018-12-23T09:45:23.153Z,90.10
2018-12-23T09:48:03.506Z,89.60
2018-12-23T09:51:03.165Z,89.50
2018-12-23T09:53:43.384Z,89.70
2018-12-23T09:56:22.693Z,89.60
2018-12-23T09:59:02.269Z,89.60
2018-12-23T10:02:01.772Z,89.40
2018-12-23T10:04:44.218Z,89.30
2018-12-23T10:07:23.904Z,89.50
2018-12-23T10:10:28.312Z,89.60
2018-12-23T10:13:04.754Z,89.60
2018-12-23T10:15:44.278Z,89.50
2018-12-23T10:18:24.435Z,89.60
2018-12-23T10:21:04.709Z,89.70
2018-12-23T10:23:44.688Z,89.60
2018-12-23T10:26:24.038Z,89.80
2018-12-23T10:29:04.318Z,89.90
2018-12-23T10:31:44.117Z,90.00
2018-12-23T10:34:24.312Z,90.30
2018-12-23T10:37:04.613Z,90.00
2018-12-23T10:39:44.008Z,89.90
2018-12-23T10:42:21.556Z,89.90
2018-12-23T10:45:31.108Z,90.00
2018-12-23T10:48:30.552Z,89.90
2018-12-23T10:51:10.777Z,90.00
2018-12-23T10:53:51.274Z,89.90
2018-12-23T10:56:31.845Z,90.00
2018-12-23T10:59:14.178Z,90.00
2018-12-23T11:02:14.046Z,90.00
2018-12-23T11:04:56.986Z,90.00
2018-12-23T11:07:37.347Z,90.10
2018-12-23T11:10:17.650Z,90.00
2018-12-23T11:13:00.826Z,89.90
2018-12-23T11:15:41.141Z,90.00
2018-12-23T11:18:21.422Z,90.00
2018-12-23T11:21:01.788Z,89.80
2018-12-23T11:23:41.834Z,89.90
2018-12-23T11:26:22.045Z,89.80
2018-12-23T11:29:02.364Z,90.00
2018-12-23T11:31:42.670Z,90.30
2018-12-23T11:34:23.013Z,89.80
2018-12-23T11:37:03.313Z,89.90
2018-12-23T11:39:43.657Z,90.10
2018-12-23T11:42:23.004Z,90.00
2018-12-23T11:45:22.432Z,90.00
2018-12-23T11:48:21.850Z,90.00
2018-12-23T11:51:01.248Z,90.00
2018-12-23T11:53:41.454Z,90.10
2018-12-23T11:56:21.581Z,90.20
2018-12-23T11:59:01.168Z,90.20
2018-12-23T12:01:47.662Z,90.20
2018-12-23T12:04:47.280Z,90.20
2018-12-23T12:07:26.816Z,90.10
2018-12-23T12:10:10.122Z,90.20
2018-12-23T12:13:09.533Z,90.20
2018-12-23T12:15:49.744Z,90.30
2018-12-23T12:18:29.945Z,90.20
2018-12-23T12:21:09.365Z,90.30
2018-12-23T12:23:49.727Z,90.20
2018-12-23T12:26:49.149Z,90.20
2018-12-23T12:29:48.865Z,90.20
2018-12-23T12:32:29.296Z,90.10
2018-12-23T12:35:12.475Z,90.10
2018-12-23T12:37:55.617Z,90.10
2018-12-23T12:40:34.965Z,90.10
2018-12-23T12:43:18.373Z,90.10
2018-12-23T12:46:00.554Z,90.10
2018-12-23T12:49:04.053Z,90.10
2018-12-23T12:52:03.915Z,90.10
2018-12-23T12:54:43.273Z,90.10
2018-12-23T12:57:25.152Z,90.00
2018-12-23T13:00:04.502Z,90.00
2018-12-23T13:02:43.832Z,90.00
2018-12-23T13:05:43.238Z,89.90
2018-12-23T13:08:22.692Z,90.00
2018-12-23T13:11:02.945Z,90.10
2018-12-23T13:13:43.233Z,90.00
2018-12-23T13:16:42.740Z,90.10
2018-12-23T13:19:23.111Z,90.10
2018-12-23T13:22:03.198Z,90.00
2018-12-23T13:24:43.304Z,90.00
2018-12-23T13:27:22.967Z,90.00
2018-12-23T13:30:22.333Z,90.00
2018-12-23T13:33:21.760Z,89.90
2018-12-23T13:36:01.071Z,89.70
2018-12-23T13:38:40.644Z,89.80
2018-12-23T13:41:20.042Z,89.90
2018-12-23T13:44:19.893Z,89.60
2018-12-23T13:47:00.345Z,89.90
2018-12-23T13:49:39.980Z,89.90
2018-12-23T13:52:39.528Z,89.70
2018-12-23T13:55:19.089Z,89.80
2018-12-23T13:57:59.539Z,89.90
2018-12-23T14:00:59.787Z,89.80
2018-12-23T14:03:59.994Z,89.60
2018-12-23T14:06:59.782Z,89.50
2018-12-23T14:09:39.152Z,89.30
2018-12-23T14:12:19.421Z,89.60
2018-12-23T14:14:58.853Z,89.70
2018-12-23T14:17:41.853Z,89.90
2018-12-23T14:20:21.959Z,89.70
2018-12-23T14:23:02.137Z,89.80
2018-12-23T14:25:41.847Z,89.80
2018-12-23T14:28:41.354Z,89.90
2018-12-23T14:31:21.201Z,90.00
2018-12-23T14:34:04.572Z,89.80
2018-12-23T14:36:44.700Z,89.80
2018-12-23T14:39:28.206Z,89.80
2018-12-23T14:42:07.365Z,89.60
2018-12-23T14:44:47.733Z,89.60
2018-12-23T14:47:28.069Z,89.50
2018-12-23T14:50:28.573Z,89.40
2018-12-23T14:53:26.006Z,89.10
2018-12-23T14:56:35.577Z,89.10
2018-12-23T14:59:15.773Z,89.40
2018-12-23T15:01:56.085Z,89.40
2018-12-23T15:04:36.153Z,89.70
2018-12-23T15:07:15.722Z,89.50
2018-12-23T15:10:15.352Z,89.80
2018-12-23T15:12:55.413Z,89.70
2018-12-23T15:15:35.595Z,89.70
2018-12-23T15:18:15.084Z,89.40
2018-12-23T15:20:55.190Z,89.70
2018-12-23T15:23:34.666Z,89.60
2018-12-23T15:26:34.015Z,89.40
2018-12-23T15:29:34.280Z,89.50
2018-12-23T15:32:34.736Z,89.40
2018-12-23T15:35:15.203Z,89.60
2018-12-23T15:38:14.809Z,89.80
2018-12-23T15:41:15.093Z,89.70
2018-12-23T15:43:54.918Z,89.60
2018-12-23T15:46:55.521Z,89.40
2018-12-23T15:49:35.856Z,89.20
2018-12-23T15:52:16.282Z,89.50
2018-12-23T15:54:56.454Z,89.40
2018-12-23T15:57:35.714Z,89.50
2018-12-23T16:00:16.167Z,89.50
2018-12-23T16:02:56.471Z,89.50
2018-12-23T16:05:56.753Z,89.30
2018-12-23T16:08:39.938Z,89.30
2018-12-23T16:11:23.194Z,89.30
2018-12-23T16:14:05.664Z,89.20
2018-12-23T16:17:05.149Z,89.20
2018-12-23T16:19:47.617Z,89.10
2018-12-23T16:22:27.026Z,89.10
2018-12-23T16:25:07.222Z,88.90
2018-12-23T16:27:47.540Z,89.00
2018-12-23T16:30:30.752Z,89.30
2018-12-23T16:33:13.969Z,89.40
2018-12-23T16:35:56.225Z,89.20
2018-12-23T16:38:55.926Z,89.20
2018-12-23T16:41:35.645Z,89.10
2018-12-23T16:44:34.864Z,89.00
2018-12-23T16:47:34.385Z,89.10
2018-12-23T16:50:13.814Z,89.20
2018-12-23T16:52:54.335Z,89.20
2018-12-23T16:55:54.913Z,89.20
2018-12-23T16:58:34.608Z,89.10
2018-12-23T17:01:17.318Z,89.10
2018-12-23T17:03:57.865Z,89.00
2018-12-23T17:06:41.049Z,89.10
2018-12-23T17:09:40.398Z,89.10
2018-12-23T17:12:39.936Z,89.00
2018-12-23T17:15:19.431Z,89.00
2018-12-23T17:17:59.705Z,89.00
2018-12-23T17:20:39.181Z,88.90
2018-12-23T17:23:38.670Z,88.90
2018-12-23T17:26:38.189Z,88.90
2018-12-23T17:29:38.620Z,89.10
2018-12-23T17:32:21.841Z,89.00
2018-12-23T17:35:22.420Z,89.00
2018-12-23T17:38:01.894Z,89.10
2018-12-23T17:40:41.896Z,89.00
2018-12-23T17:43:22.357Z,89.00
2018-12-23T17:46:02.623Z,89.20
2018-12-23T17:48:45.855Z,89.10
2018-12-23T17:51:45.422Z,89.00
2018-12-23T17:54:28.227Z,88.90
2018-12-23T17:57:08.314Z,88.90
2018-12-23T17:59:47.925Z,88.90
2018-12-23T18:02:47.283Z,88.90
2018-12-23T18:05:29.507Z,88.90
2018-12-23T18:08:09.729Z,88.90
2018-12-23T18:10:50.086Z,88.80
2018-12-23T18:13:30.238Z,89.50
2018-12-23T18:16:10.262Z,89.40
2018-12-23T18:18:50.517Z,88.80
2018-12-23T18:21:30.697Z,88.90
2018-12-23T18:24:10.983Z,88.90
2018-12-23T18:26:50.777Z,88.90
2018-12-23T18:29:51.089Z,88.90
2018-12-23T18:32:30.769Z,88.90
2018-12-23T18:35:31.158Z,88.90
2018-12-23T18:38:31.679Z,88.80
2018-12-23T18:41:11.717Z,88.90
2018-12-23T18:44:11.281Z,88.70
2018-12-23T18:46:50.595Z,88.70
2018-12-23T18:49:28.318Z,88.50
2018-12-23T18:52:15.176Z,88.70
2018-12-23T18:54:55.064Z,88.80
2018-12-23T18:57:35.113Z,88.70
2018-12-23T19:00:15.388Z,88.90
2018-12-23T19:02:55.695Z,88.50
2018-12-23T19:05:35.031Z,88.40
2018-12-23T19:08:15.269Z,88.50
2018-12-23T19:10:55.481Z,88.40
2018-12-23T19:13:35.087Z,88.60
2018-12-23T19:16:14.926Z,88.70
2018-12-23T19:18:57.597Z,88.80
2018-12-23T19:21:36.900Z,88.70
2018-12-23T19:24:16.972Z,88.70
2018-12-23T19:26:56.839Z,88.60
2018-12-23T19:29:36.292Z,88.50
2018-12-23T19:32:16.820Z,88.40
2018-12-23T19:34:59.086Z,88.50
2018-12-23T19:37:38.865Z,88.50
2018-12-23T19:40:39.318Z,88.30
2018-12-23T19:43:19.877Z,88.50
2018-12-23T19:46:00.051Z,88.50
2018-12-23T19:48:40.500Z,88.40
2018-12-23T19:51:20.362Z,88.50
2018-12-23T19:54:00.504Z,88.40
2018-12-23T19:56:40.040Z,88.30
2018-12-23T19:59:22.403Z,88.20
2018-12-23T20:02:22.513Z,88.50
2018-12-23T20:05:22.129Z,88.30
2018-12-23T20:08:02.498Z,88.20
2018-12-23T20:10:42.786Z,88.30
2018-12-23T20:13:23.057Z,88.20
2018-12-23T20:16:02.613Z,88.20
2018-12-23T20:19:02.208Z,88.30
2018-12-23T20:22:01.598Z,88.10
2018-12-23T20:25:02.036Z,88.10
2018-12-23T20:27:42.364Z,88.50
2018-12-23T20:30:21.728Z,88.50
2018-12-23T20:33:01.164Z,88.20
2018-12-23T20:35:40.793Z,88.30
2018-12-23T20:38:21.141Z,88.30
2018-12-23T20:41:07.524Z,88.20
2018-12-23T20:43:45.471Z,88.10
2018-12-23T20:46:24.808Z,88.10
2018-12-23T20:49:04.259Z,88.40
2018-12-23T20:51:43.645Z,88.10
2018-12-23T20:54:23.291Z,88.20
2018-12-23T20:57:02.837Z,88.30
2018-12-23T20:59:43.148Z,88.20
2018-12-23T21:02:23.509Z,88.10
2018-12-23T21:05:03.306Z,88.10
2018-12-23T21:08:03.872Z,88.10
2018-12-23T21:10:44.125Z,88.20
2018-12-23T21:13:24.446Z,88.00
2018-12-23T21:16:03.932Z,88.10
2018-12-23T21:18:47.158Z,88.10
2018-12-23T21:21:30.404Z,88.10
2018-12-23T21:24:30.658Z,88.10
2018-12-23T21:27:11.005Z,87.90
2018-12-23T21:29:50.591Z,87.90
2018-12-23T21:32:30.909Z,87.60
2018-12-23T21:35:13.159Z,87.70
2018-12-23T21:38:13.348Z,87.80
2018-12-23T21:40:55.879Z,87.70
2018-12-23T21:43:55.277Z,87.90
2018-12-23T21:46:35.446Z,87.70
2018-12-23T21:49:14.874Z,87.80
2018-12-23T21:51:54.734Z,87.70
2018-12-23T21:54:34.368Z,87.80
2018-12-23T21:57:16.684Z,87.80
2018-12-23T22:00:16.250Z,87.80
2018-12-23T22:02:55.734Z,87.80
2018-12-23T22:05:35.843Z,87.90
2018-12-23T22:08:15.816Z,87.80
2018-12-23T22:10:58.290Z,87.80
2018-12-23T22:13:38.588Z,87.80
2018-12-23T22:16:18.581Z,87.90
2018-12-23T22:18:58.077Z,87.90
2018-12-23T22:21:38.364Z,87.80
2018-12-23T22:24:37.853Z,87.80
2018-12-23T22:27:17.249Z,87.80
2018-12-23T22:29:56.925Z,87.80
2018-12-23T22:32:56.385Z,88.00
2018-12-23T22:35:35.917Z,88.00
2018-12-23T22:38:15.996Z,88.10
2018-12-23T22:40:55.360Z,88.00
2018-12-23T22:43:35.414Z,88.00
2018-12-23T22:46:15.724Z,88.00
2018-12-23T22:48:55.209Z,87.90
2018-12-23T22:51:35.448Z,87.90
2018-12-23T22:54:15.629Z,88.00
2018-12-23T22:56:55.230Z,88.10
2018-12-23T22:59:35.460Z,88.00
2018-12-23T23:02:15.641Z,88.00
2018-12-23T23:04:55.721Z,88.00
2018-12-23T23:07:35.817Z,88.00
2018-12-23T23:10:16.102Z,88.00
2018-12-23T23:12:55.385Z,87.90
2018-12-23T23:15:34.813Z,87.90
2018-12-23T23:18:14.372Z,88.80
2018-12-23T23:21:13.798Z,88.10
2018-12-23T23:23:53.258Z,87.90
2018-12-23T23:26:33.094Z,88.00
2018-12-23T23:29:32.447Z,88.20
2018-12-23T23:32:31.814Z,88.20
2018-12-23T23:35:11.247Z,88.20
2018-12-23T23:38:10.831Z,88.30
2018-12-23T23:40:51.045Z,88.30
2018-12-23T23:43:31.105Z,88.40
2018-12-23T23:46:31.389Z,88.40
2018-12-23T23:49:30.735Z,88.40
2018-12-23T23:52:30.486Z,88.40
2018-12-23T23:55:10.097Z,88.40
2018-12-23T23:57:53.318Z,88.30
